createdAt,value
2023-06-13T00:00:49.193Z,1010.96
2023-06-13T00:01:49.172Z,1010.96
2023-06-13T00:02:49.279Z,1010.94
2023-06-13T00:03:49.348Z,1010.96
2023-06-13T00:04:49.120Z,1010.94
2023-06-13T00:05:49.117Z,1010.89
2023-06-13T00:06:49.172Z,1010.93
2023-06-13T00:07:49.159Z,1010.91
2023-06-13T00:08:49.096Z,1010.91
2023-06-13T00:09:49.069Z,1010.93
2023-06-13T00:10:49.069Z,1010.91
2023-06-13T00:11:49.049Z,1010.88
2023-06-13T00:12:49.082Z,1010.89
2023-06-13T00:13:49.061Z,1010.89
2023-06-13T00:14:49.013Z,1010.87
2023-06-13T00:15:49.002Z,1010.88
2023-06-13T00:16:49.024Z,1010.85
2023-06-13T00:17:49.016Z,1010.86
2023-06-13T00:18:49.010Z,1010.91
2023-06-13T00:19:48.982Z,1010.87
2023-06-13T00:20:48.963Z,1010.89
2023-06-13T00:21:48.973Z,1010.88
2023-06-13T00:22:48.939Z,1010.85
2023-06-13T00:23:48.949Z,1010.84
2023-06-13T00:24:48.917Z,1010.84
2023-06-13T00:25:48.917Z,1010.82
2023-06-13T00:26:48.950Z,1010.82
2023-06-13T00:27:48.880Z,1010.81
2023-06-13T00:28:48.875Z,1010.76
2023-06-13T00:29:48.861Z,1010.76
2023-06-13T00:30:48.917Z,1010.76
2023-06-13T00:31:48.837Z,1010.73
2023-06-13T00:32:48.836Z,1010.75
2023-06-13T00:33:48.814Z,1010.78
2023-06-13T00:34:48.826Z,1010.75
2023-06-13T00:35:48.799Z,1010.73
2023-06-13T00:36:48.776Z,1010.71
2023-06-13T00:37:48.780Z,1010.71
2023-06-13T00:38:48.766Z,1010.71
2023-06-13T00:39:48.750Z,1010.72
2023-06-13T00:40:48.748Z,1010.71
2023-06-13T00:41:48.741Z,1010.70
2023-06-13T00:42:48.742Z,1010.69
2023-06-13T00:43:48.704Z,1010.69
2023-06-13T00:44:48.759Z,1010.72
2023-06-13T00:45:48.697Z,1010.67
2023-06-13T00:46:48.726Z,1010.69
2023-06-13T00:47:48.730Z,1010.66
2023-06-13T00:48:48.676Z,1010.68
2023-06-13T00:49:48.628Z,1010.64
2023-06-13T00:50:48.660Z,1010.60
2023-06-13T00:51:48.620Z,1010.58
2023-06-13T00:52:48.612Z,1010.60
2023-06-13T00:53:48.698Z,1010.61
2023-06-13T00:54:48.587Z,1010.59
2023-06-13T00:55:48.605Z,1010.59
2023-06-13T00:56:48.569Z,1010.57
2023-06-13T00:57:48.559Z,1010.55
2023-06-13T00:58:48.554Z,1010.57
2023-06-13T00:59:48.536Z,1010.54
2023-06-13T01:00:48.521Z,1010.54
2023-06-13T01:01:48.816Z,1010.56
2023-06-13T01:02:48.558Z,1010.53
2023-06-13T01:03:48.479Z,1010.51
2023-06-13T01:04:48.592Z,1010.52
2023-06-13T01:05:48.474Z,1010.49
2023-06-13T01:06:48.458Z,1010.49
2023-06-13T01:07:48.457Z,1010.47
2023-06-13T01:08:48.436Z,1010.46
2023-06-13T01:09:48.423Z,1010.46
2023-06-13T01:10:48.418Z,1010.45
2023-06-13T01:11:48.409Z,1010.43
2023-06-13T01:12:48.406Z,1010.43
2023-06-13T01:13:48.368Z,1010.47
2023-06-13T01:14:48.365Z,1010.43
2023-06-13T01:15:48.374Z,1010.46
2023-06-13T01:16:48.490Z,1010.47
2023-06-13T01:17:48.365Z,1010.44
2023-06-13T01:18:48.326Z,1010.42
2023-06-13T01:19:48.303Z,1010.43
2023-06-13T01:20:48.302Z,1010.42
2023-06-13T01:21:48.293Z,1010.43
2023-06-13T01:22:48.286Z,1010.44
2023-06-13T01:23:48.304Z,1010.46
2023-06-13T01:24:48.269Z,1010.41
2023-06-13T01:25:48.248Z,1010.39
2023-06-13T01:26:48.240Z,1010.45
2023-06-13T01:27:50.843Z,1010.37
2023-06-13T01:28:48.248Z,1010.42
2023-06-13T01:29:48.212Z,1010.39
2023-06-13T01:30:48.194Z,1010.41
2023-06-13T01:31:48.247Z,1010.44
2023-06-13T01:32:48.221Z,1010.43
2023-06-13T01:33:48.175Z,1010.45
2023-06-13T01:34:48.147Z,1010.43
2023-06-13T01:35:48.132Z,1010.46
2023-06-13T01:36:48.146Z,1010.46
2023-06-13T01:37:48.113Z,1010.43
2023-06-13T01:38:48.138Z,1010.45
2023-06-13T01:39:48.122Z,1010.43
2023-06-13T01:40:48.084Z,1010.42
2023-06-13T01:41:48.255Z,1010.40
2023-06-13T01:42:48.055Z,1010.41
2023-06-13T01:43:48.052Z,1010.40
2023-06-13T01:44:48.050Z,1010.39
2023-06-13T01:45:48.085Z,1010.42
2023-06-13T01:46:48.029Z,1010.39
2023-06-13T01:47:48.067Z,1010.42
2023-06-13T01:48:48.002Z,1010.42
2023-06-13T01:49:47.986Z,1010.44
2023-06-13T01:50:47.982Z,1010.39
2023-06-13T01:51:47.968Z,1010.41
2023-06-13T01:52:47.972Z,1010.40
2023-06-13T01:53:47.926Z,1010.38
2023-06-13T01:54:47.927Z,1010.40
2023-06-13T01:55:47.951Z,1010.35
2023-06-13T01:56:47.907Z,1010.33
2023-06-13T01:57:47.923Z,1010.33
2023-06-13T01:58:47.897Z,1010.32
2023-06-13T01:59:47.887Z,1010.29
2023-06-13T02:00:47.872Z,1010.27
2023-06-13T02:01:47.954Z,1010.30
2023-06-13T02:02:47.925Z,1010.28
2023-06-13T02:03:47.880Z,1010.25
2023-06-13T02:04:47.847Z,1010.27
2023-06-13T02:05:47.808Z,1010.27
2023-06-13T02:06:47.802Z,1010.26
2023-06-13T02:07:47.780Z,1010.28
2023-06-13T02:08:47.815Z,1010.27
2023-06-13T02:09:47.772Z,1010.27
2023-06-13T02:10:47.758Z,1010.29
2023-06-13T02:11:47.743Z,1010.25
2023-06-13T02:12:47.741Z,1010.27
2023-06-13T02:13:48.240Z,1010.26
2023-06-13T02:14:47.708Z,1010.30
2023-06-13T02:15:47.696Z,1010.28
2023-06-13T02:16:47.755Z,1010.28
2023-06-13T02:17:47.697Z,1010.32
2023-06-13T02:18:47.658Z,1010.37
2023-06-13T02:19:47.658Z,1010.38
2023-06-13T02:20:47.656Z,1010.34
2023-06-13T02:21:47.632Z,1010.35
2023-06-13T02:22:47.631Z,1010.35
2023-06-13T02:23:47.673Z,1010.29
2023-06-13T02:24:47.629Z,1010.32
2023-06-13T02:25:47.599Z,1010.32
2023-06-13T02:26:47.576Z,1010.34
2023-06-13T02:27:47.564Z,1010.32
2023-06-13T02:28:47.564Z,1010.30
2023-06-13T02:29:47.561Z,1010.28
2023-06-13T02:30:47.557Z,1010.30
2023-06-13T02:31:47.600Z,1010.30
2023-06-13T02:32:47.562Z,1010.30
2023-06-13T02:33:47.495Z,1010.30
2023-06-13T02:34:47.493Z,1010.31
2023-06-13T02:35:47.485Z,1010.28
2023-06-13T02:36:47.459Z,1010.28
2023-06-13T02:37:47.449Z,1010.27
2023-06-13T02:38:47.441Z,1010.26
2023-06-13T02:39:47.468Z,1010.25
2023-06-13T02:40:47.418Z,1010.24
2023-06-13T02:41:47.412Z,1010.25
2023-06-13T02:42:47.406Z,1010.22
2023-06-13T02:43:47.495Z,1010.25
2023-06-13T02:44:47.392Z,1010.27
2023-06-13T02:45:47.366Z,1010.29
2023-06-13T02:46:47.362Z,1010.27
2023-06-13T02:47:47.602Z,1010.25
2023-06-13T02:48:47.414Z,1010.24
2023-06-13T02:49:47.354Z,1010.26
2023-06-13T02:50:47.303Z,1010.24
2023-06-13T02:51:47.345Z,1010.23
2023-06-13T02:52:49.150Z,1010.21
2023-06-13T02:53:47.290Z,1010.22
2023-06-13T02:54:47.266Z,1010.21
2023-06-13T02:55:47.268Z,1010.20
2023-06-13T02:56:47.243Z,1010.21
2023-06-13T02:57:47.241Z,1010.19
2023-06-13T02:58:47.224Z,1010.16
2023-06-13T02:59:47.229Z,1010.19
2023-06-13T03:00:47.257Z,1010.18
2023-06-13T03:01:47.263Z,1010.20
2023-06-13T03:02:47.288Z,1010.15
2023-06-13T03:03:47.227Z,1010.13
2023-06-13T03:04:47.154Z,1010.15
2023-06-13T03:05:47.153Z,1010.11
2023-06-13T03:06:47.134Z,1010.12
2023-06-13T03:07:47.180Z,1010.15
2023-06-13T03:08:47.115Z,1010.16
2023-06-13T03:09:47.123Z,1010.14
2023-06-13T03:10:47.141Z,1010.13
2023-06-13T03:11:47.092Z,1010.12
2023-06-13T03:12:47.072Z,1010.09
2023-06-13T03:13:47.056Z,1010.09
2023-06-13T03:14:47.052Z,1010.07
2023-06-13T03:15:47.047Z,1010.11
2023-06-13T03:16:47.130Z,1010.09
2023-06-13T03:17:47.049Z,1010.10
2023-06-13T03:18:46.995Z,1010.11
2023-06-13T03:19:46.988Z,1010.12
2023-06-13T03:20:47.053Z,1010.12
2023-06-13T03:21:46.985Z,1010.12
2023-06-13T03:22:47.013Z,1010.11
2023-06-13T03:23:46.960Z,1010.12
2023-06-13T03:24:46.958Z,1010.06
2023-06-13T03:25:46.990Z,1010.08
2023-06-13T03:26:46.934Z,1010.05
2023-06-13T03:27:46.953Z,1010.04
2023-06-13T03:28:46.922Z,1010.03
2023-06-13T03:29:46.998Z,1010.08
2023-06-13T03:30:46.906Z,1010.02
2023-06-13T03:31:46.892Z,1010.05
2023-06-13T03:32:46.941Z,1010.10
2023-06-13T03:33:46.838Z,1010.08
2023-06-13T03:34:46.829Z,1010.07
2023-06-13T03:35:46.817Z,1010.06
2023-06-13T03:36:46.940Z,1010.07
2023-06-13T03:37:46.788Z,1010.08
2023-06-13T03:38:46.773Z,1010.11
2023-06-13T03:39:46.768Z,1010.12
2023-06-13T03:40:46.752Z,1010.12
2023-06-13T03:41:46.930Z,1010.09
2023-06-13T03:42:46.762Z,1010.10
2023-06-13T03:43:46.724Z,1010.09
2023-06-13T03:44:46.754Z,1010.10
2023-06-13T03:45:46.702Z,1010.11
2023-06-13T03:46:46.687Z,1010.09
2023-06-13T03:47:46.771Z,1010.10
2023-06-13T03:48:46.973Z,1010.11
2023-06-13T03:49:46.666Z,1010.11
2023-06-13T03:50:46.650Z,1010.06
2023-06-13T03:51:46.647Z,1010.05
2023-06-13T03:52:46.621Z,1010.03
2023-06-13T03:53:46.606Z,1010.07
2023-06-13T03:54:46.659Z,1010.04
2023-06-13T03:55:46.586Z,1010.03
2023-06-13T03:56:46.573Z,1010.00
2023-06-13T03:57:46.569Z,1009.99
2023-06-13T03:58:46.551Z,1010.00
2023-06-13T03:59:46.545Z,1010.01
2023-06-13T04:00:46.563Z,1010.01
2023-06-13T04:01:46.528Z,1009.98
2023-06-13T04:02:46.576Z,1009.99
2023-06-13T04:03:46.597Z,1009.99
2023-06-13T04:04:46.494Z,1009.95
2023-06-13T04:05:46.621Z,1009.97
2023-06-13T04:06:46.467Z,1010.01
2023-06-13T04:07:46.464Z,1009.94
2023-06-13T04:08:46.447Z,1009.96
2023-06-13T04:09:46.437Z,1009.95
2023-06-13T04:10:46.616Z,1009.94
2023-06-13T04:11:46.446Z,1009.97
2023-06-13T04:12:46.402Z,1009.97
2023-06-13T04:13:46.404Z,1009.94
2023-06-13T04:14:46.377Z,1009.96
2023-06-13T04:15:46.377Z,1009.93
2023-06-13T04:16:46.427Z,1009.94
2023-06-13T04:17:48.254Z,1009.97
2023-06-13T04:18:46.332Z,1009.94
2023-06-13T04:19:46.323Z,1009.93
2023-06-13T04:20:46.307Z,1009.93
2023-06-13T04:21:46.299Z,1009.93
2023-06-13T04:22:46.339Z,1009.92
2023-06-13T04:23:46.336Z,1009.86
2023-06-13T04:24:46.271Z,1009.90
2023-06-13T04:25:46.290Z,1009.85
2023-06-13T04:26:46.323Z,1009.85
2023-06-13T04:27:46.302Z,1009.86
2023-06-13T04:28:46.221Z,1009.84
2023-06-13T04:29:46.224Z,1009.87
2023-06-13T04:30:46.198Z,1009.86
2023-06-13T04:31:46.253Z,1009.89
2023-06-13T04:32:46.185Z,1009.86
2023-06-13T04:33:46.345Z,1009.85
2023-06-13T04:34:46.149Z,1009.88
2023-06-13T04:35:46.162Z,1009.86
2023-06-13T04:36:46.130Z,1009.91
2023-06-13T04:37:46.120Z,1009.88
2023-06-13T04:38:46.101Z,1009.89
2023-06-13T04:39:46.128Z,1009.91
2023-06-13T04:40:46.100Z,1009.95
2023-06-13T04:41:46.080Z,1010.02
2023-06-13T04:42:46.063Z,1010.13
2023-06-13T04:43:46.054Z,1010.18
2023-06-13T04:44:46.033Z,1010.15
2023-06-13T04:45:46.108Z,1010.08
2023-06-13T04:46:46.012Z,1009.95
2023-06-13T04:47:55.684Z,1009.95
2023-06-13T04:48:45.996Z,1009.97
2023-06-13T04:49:45.984Z,1010.02
2023-06-13T04:50:46.022Z,1010.07
2023-06-13T04:51:45.969Z,1010.12
2023-06-13T04:52:45.951Z,1010.10
2023-06-13T04:53:45.935Z,1010.09
2023-06-13T04:54:45.921Z,1010.06
2023-06-13T04:55:45.937Z,1010.07
2023-06-13T04:56:45.926Z,1010.07
2023-06-13T04:57:45.899Z,1010.10
2023-06-13T04:58:45.892Z,1010.10
2023-06-13T04:59:45.891Z,1010.12
2023-06-13T05:00:45.860Z,1010.08
2023-06-13T05:01:45.930Z,1010.09
2023-06-13T05:02:45.913Z,1010.07
2023-06-13T05:03:45.879Z,1010.06
2023-06-13T05:04:45.832Z,1010.07
2023-06-13T05:05:45.801Z,1010.08
2023-06-13T05:06:45.801Z,1010.05
2023-06-13T05:07:45.843Z,1010.05
2023-06-13T05:08:45.769Z,1010.02
2023-06-13T05:09:45.812Z,1010.03
2023-06-13T05:10:45.757Z,1010.02
2023-06-13T05:11:45.757Z,1010.05
2023-06-13T05:12:45.757Z,1010.04
2023-06-13T05:13:45.746Z,1010.02
2023-06-13T05:14:45.711Z,1010.03
2023-06-13T05:15:45.723Z,1010.04
2023-06-13T05:16:45.685Z,1010.04
2023-06-13T05:17:45.691Z,1010.01
2023-06-13T05:18:45.703Z,1010.01
2023-06-13T05:19:45.650Z,1010.01
2023-06-13T05:20:45.636Z,1010.02
2023-06-13T05:21:45.643Z,1010.00
2023-06-13T05:22:45.624Z,1009.98
2023-06-13T05:23:45.838Z,1009.99
2023-06-13T05:24:45.673Z,1009.95
2023-06-13T05:25:45.597Z,1009.99
2023-06-13T05:26:45.586Z,1009.91
2023-06-13T05:27:45.592Z,1009.88
2023-06-13T05:28:45.556Z,1009.89
2023-06-13T05:29:45.579Z,1009.90
2023-06-13T05:30:45.536Z,1009.94
2023-06-13T05:31:45.533Z,1009.91
2023-06-13T05:32:45.548Z,1009.92
2023-06-13T05:33:45.497Z,1009.91
2023-06-13T05:34:45.527Z,1009.90
2023-06-13T05:35:57.191Z,1009.88
2023-06-13T05:36:45.481Z,1009.90
2023-06-13T05:37:45.461Z,1009.91
2023-06-13T05:38:45.447Z,1009.93
2023-06-13T05:39:45.437Z,1009.93
2023-06-13T05:40:45.456Z,1009.89
2023-06-13T05:41:45.407Z,1009.92
2023-06-13T05:42:45.407Z,1009.91
2023-06-13T05:43:45.385Z,1009.88
2023-06-13T05:44:45.393Z,1009.90
2023-06-13T05:45:45.423Z,1009.90
2023-06-13T05:46:45.407Z,1009.91
2023-06-13T05:47:45.403Z,1009.87
2023-06-13T05:48:45.366Z,1009.91
2023-06-13T05:49:45.331Z,1009.87
2023-06-13T05:50:45.478Z,1009.88
2023-06-13T05:51:45.298Z,1009.89
2023-06-13T05:52:45.293Z,1009.84
2023-06-13T05:53:45.283Z,1009.88
2023-06-13T05:54:45.267Z,1009.89
2023-06-13T05:55:45.251Z,1009.93
2023-06-13T05:56:45.289Z,1009.97
2023-06-13T05:57:45.235Z,1009.98
2023-06-13T05:58:45.284Z,1009.98
2023-06-13T05:59:45.209Z,1009.95
2023-06-13T06:00:45.206Z,1009.93
2023-06-13T06:01:45.213Z,1009.98
2023-06-13T06:02:45.393Z,1010.02
2023-06-13T06:03:45.231Z,1010.01
2023-06-13T06:04:45.162Z,1010.02
2023-06-13T06:05:45.147Z,1009.99
2023-06-13T06:06:45.148Z,1009.94
2023-06-13T06:07:45.145Z,1009.95
2023-06-13T06:08:45.108Z,1009.93
2023-06-13T06:09:45.127Z,1009.93
2023-06-13T06:10:45.098Z,1009.94
2023-06-13T06:11:45.075Z,1009.96
2023-06-13T06:12:45.082Z,1009.97
2023-06-13T06:13:45.061Z,1009.97
2023-06-13T06:14:45.088Z,1010.00
2023-06-13T06:15:45.063Z,1010.06
2023-06-13T06:16:45.024Z,1010.11
2023-06-13T06:17:45.064Z,1010.07
2023-06-13T06:18:45.160Z,1010.03
2023-06-13T06:19:44.984Z,1009.96
2023-06-13T06:20:44.975Z,1009.94
2023-06-13T06:21:44.987Z,1009.93
2023-06-13T06:22:44.953Z,1009.93
2023-06-13T06:23:45.013Z,1009.93
2023-06-13T06:24:44.945Z,1009.95
2023-06-13T06:25:44.938Z,1009.97
2023-06-13T06:26:44.918Z,1009.99
2023-06-13T06:27:44.952Z,1010.04
2023-06-13T06:28:44.898Z,1010.02
2023-06-13T06:29:44.891Z,1009.99
2023-06-13T06:30:44.923Z,1009.96
2023-06-13T06:31:44.866Z,1009.98
2023-06-13T06:32:44.881Z,1009.96
2023-06-13T06:33:44.854Z,1009.97
2023-06-13T06:34:44.828Z,1010.01
2023-06-13T06:35:44.841Z,1010.01
2023-06-13T06:36:44.808Z,1010.03
2023-06-13T06:37:44.806Z,1010.05
2023-06-13T06:38:44.848Z,1010.07
2023-06-13T06:39:44.844Z,1010.05
2023-06-13T06:40:44.780Z,1010.05
2023-06-13T06:41:44.760Z,1010.02
2023-06-13T06:42:44.744Z,1010.04
2023-06-13T06:43:44.731Z,1010.11
2023-06-13T06:44:45.816Z,1010.12
2023-06-13T06:45:44.734Z,1010.08
2023-06-13T06:46:44.713Z,1010.07
2023-06-13T06:47:44.719Z,1010.00
2023-06-13T06:48:44.672Z,1009.98
2023-06-13T06:49:44.667Z,1009.99
2023-06-13T06:50:44.652Z,1009.96
2023-06-13T06:51:44.671Z,1010.00
2023-06-13T06:52:44.648Z,1009.97
2023-06-13T06:53:44.628Z,1009.92
2023-06-13T06:54:44.645Z,1009.91
2023-06-13T06:55:44.623Z,1009.95
2023-06-13T06:56:44.585Z,1009.92
2023-06-13T06:57:44.602Z,1009.94
2023-06-13T06:58:44.568Z,1009.95
2023-06-13T06:59:44.617Z,1009.96
2023-06-13T07:00:44.620Z,1009.98
2023-06-13T07:01:44.542Z,1010.02
2023-06-13T07:02:44.594Z,1010.03
2023-06-13T07:03:44.581Z,1010.01
2023-06-13T07:04:44.511Z,1009.99
2023-06-13T07:05:44.503Z,1009.99
2023-06-13T07:06:44.492Z,1009.93
2023-06-13T07:07:44.482Z,1009.92
2023-06-13T07:08:44.466Z,1009.87
2023-06-13T07:09:44.482Z,1009.83
2023-06-13T07:10:44.441Z,1009.78
2023-06-13T07:11:44.444Z,1009.76
2023-06-13T07:12:44.418Z,1009.77
2023-06-13T07:13:44.415Z,1009.73
2023-06-13T07:14:44.390Z,1009.74
2023-06-13T07:15:44.423Z,1009.71
2023-06-13T07:16:44.525Z,1009.72
2023-06-13T07:17:44.397Z,1009.74
2023-06-13T07:18:44.358Z,1009.78
2023-06-13T07:19:44.348Z,1009.77
2023-06-13T07:20:44.325Z,1009.78
2023-06-13T07:21:44.364Z,1009.79
2023-06-13T07:22:44.317Z,1009.78
2023-06-13T07:23:53.295Z,1009.74
2023-06-13T07:24:44.366Z,1009.74
2023-06-13T07:25:44.272Z,1009.75
2023-06-13T07:26:44.262Z,1009.77
2023-06-13T07:27:44.288Z,1009.74
2023-06-13T07:28:44.242Z,1009.73
2023-06-13T07:29:44.244Z,1009.75
2023-06-13T07:30:44.227Z,1009.78
2023-06-13T07:31:44.314Z,1009.75
2023-06-13T07:32:44.286Z,1009.77
2023-06-13T07:33:44.226Z,1009.74
2023-06-13T07:35:44.172Z,1009.85
2023-06-13T07:36:44.156Z,1009.84
2023-06-13T07:37:44.148Z,1009.85
2023-06-13T07:38:44.131Z,1009.78
2023-06-13T07:39:44.194Z,1009.80
2023-06-13T07:40:44.114Z,1009.82
2023-06-13T07:41:44.104Z,1009.82
2023-06-13T07:42:44.091Z,1009.84
2023-06-13T07:43:44.085Z,1009.84
2023-06-13T07:44:44.081Z,1009.87
2023-06-13T07:45:44.113Z,1009.87
2023-06-13T07:46:44.044Z,1009.89
2023-06-13T07:47:44.191Z,1009.89
2023-06-13T07:48:44.015Z,1009.89
2023-06-13T07:49:44.015Z,1009.84
2023-06-13T07:50:43.996Z,1009.81
2023-06-13T07:51:44.020Z,1009.87
2023-06-13T07:52:43.980Z,1009.86
2023-06-13T07:53:43.973Z,1009.88
2023-06-13T07:54:43.966Z,1009.86
2023-06-13T07:55:43.961Z,1009.87
2023-06-13T07:56:43.991Z,1009.82
2023-06-13T07:57:58.998Z,1009.84
2023-06-13T07:58:43.918Z,1009.84
2023-06-13T07:59:43.925Z,1009.85
2023-06-13T08:00:43.897Z,1009.89
2023-06-13T08:01:43.884Z,1009.90
2023-06-13T08:02:43.990Z,1009.88
2023-06-13T08:03:44.032Z,1009.88
2023-06-13T08:04:53.698Z,1009.85
2023-06-13T08:05:43.851Z,1009.87
2023-06-13T08:06:43.818Z,1009.85
2023-06-13T08:07:43.824Z,1009.78
2023-06-13T08:08:43.807Z,1009.79
2023-06-13T08:09:43.861Z,1009.77
2023-06-13T08:10:43.785Z,1009.76
2023-06-13T08:11:43.776Z,1009.73
2023-06-13T08:12:43.776Z,1009.74
2023-06-13T08:13:43.882Z,1009.73
2023-06-13T08:14:43.754Z,1009.72
2023-06-13T08:15:43.803Z,1009.73
2023-06-13T08:16:43.726Z,1009.72
2023-06-13T08:17:43.866Z,1009.74
2023-06-13T08:18:43.700Z,1009.74
2023-06-13T08:19:43.688Z,1009.73
2023-06-13T08:20:43.712Z,1009.75
2023-06-13T08:21:43.706Z,1009.71
2023-06-13T08:22:43.664Z,1009.69
2023-06-13T08:23:43.674Z,1009.72
2023-06-13T08:24:43.633Z,1009.69
2023-06-13T08:25:43.663Z,1009.69
2023-06-13T08:26:43.626Z,1009.68
2023-06-13T08:27:43.642Z,1009.65
2023-06-13T08:28:43.587Z,1009.69
2023-06-13T08:29:43.574Z,1009.68
2023-06-13T08:30:43.569Z,1009.68
2023-06-13T08:31:49.647Z,1009.65
2023-06-13T08:32:43.682Z,1009.69
2023-06-13T08:33:51.664Z,1009.68
2023-06-13T08:34:43.527Z,1009.72
2023-06-13T08:35:43.637Z,1009.74
2023-06-13T08:36:43.495Z,1009.74
2023-06-13T08:37:43.490Z,1009.77
2023-06-13T08:38:52.159Z,1009.73
2023-06-13T08:39:43.638Z,1009.76
2023-06-13T08:40:43.460Z,1009.72
2023-06-13T08:41:43.480Z,1009.76
2023-06-13T08:42:43.455Z,1009.74
2023-06-13T08:43:43.421Z,1009.76
2023-06-13T08:44:43.440Z,1009.77
2023-06-13T08:45:43.451Z,1009.80
2023-06-13T08:46:43.431Z,1009.79
2023-06-13T08:47:43.567Z,1009.80
2023-06-13T08:48:43.458Z,1009.83
2023-06-13T08:49:43.359Z,1009.84
2023-06-13T08:50:43.347Z,1009.85
2023-06-13T08:51:43.362Z,1009.84
2023-06-13T08:52:43.327Z,1009.81
2023-06-13T08:53:43.321Z,1009.88
2023-06-13T08:54:58.514Z,1009.85
2023-06-13T08:56:03.722Z,1009.86
2023-06-13T08:56:45.047Z,1009.85
2023-06-13T08:57:43.306Z,1009.87
2023-06-13T08:58:43.257Z,1009.89
2023-06-13T08:59:43.248Z,1009.93
2023-06-13T09:00:43.315Z,1009.89
2023-06-13T09:01:43.218Z,1009.94
2023-06-13T09:02:43.238Z,1009.93
2023-06-13T09:03:43.327Z,1009.88
2023-06-13T09:04:43.200Z,1009.91
2023-06-13T09:05:43.193Z,1009.91
2023-06-13T09:06:43.172Z,1009.95
2023-06-13T09:07:43.157Z,1009.87
2023-06-13T09:08:43.148Z,1009.84
2023-06-13T09:09:43.160Z,1009.79
2023-06-13T09:10:43.131Z,1009.83
2023-06-13T09:11:43.141Z,1009.78
2023-06-13T09:12:43.092Z,1009.82
2023-06-13T09:13:43.096Z,1009.81
2023-06-13T09:14:43.084Z,1009.80
2023-06-13T09:15:43.148Z,1009.78
2023-06-13T09:16:43.138Z,1009.82
2023-06-13T09:17:43.342Z,1009.76
2023-06-13T09:18:43.191Z,1009.77
2023-06-13T09:19:43.025Z,1009.80
2023-06-13T09:20:43.016Z,1009.85
2023-06-13T09:21:43.077Z,1009.87
2023-06-13T09:22:42.999Z,1009.82
2023-06-13T09:23:43.023Z,1009.83
2023-06-13T09:24:42.968Z,1009.84
2023-06-13T09:25:42.954Z,1009.86
2023-06-13T09:26:42.973Z,1009.83
2023-06-13T09:27:42.946Z,1009.79
2023-06-13T09:28:42.958Z,1009.79
2023-06-13T09:29:42.917Z,1009.78
2023-06-13T09:30:42.911Z,1009.79
2023-06-13T09:31:42.895Z,1009.81
2023-06-13T09:32:42.933Z,1009.78
2023-06-13T09:33:42.883Z,1009.76
2023-06-13T09:34:42.867Z,1009.76
2023-06-13T09:35:42.860Z,1009.73
2023-06-13T09:36:42.850Z,1009.73
2023-06-13T09:37:42.832Z,1009.71
2023-06-13T09:38:43.092Z,1009.71
2023-06-13T09:39:42.812Z,1009.71
2023-06-13T09:40:42.788Z,1009.72
2023-06-13T09:41:42.790Z,1009.69
2023-06-13T09:42:44.574Z,1009.63
2023-06-13T09:43:42.773Z,1009.72
2023-06-13T09:44:54.580Z,1009.72
2023-06-13T09:45:42.756Z,1009.76
2023-06-13T09:46:42.741Z,1009.75
2023-06-13T09:47:42.765Z,1009.73
2023-06-13T09:48:42.714Z,1009.79
2023-06-13T09:49:56.194Z,1009.77
2023-06-13T09:50:42.751Z,1009.81
2023-06-13T09:51:42.714Z,1009.77
2023-06-13T09:52:42.659Z,1009.75
2023-06-13T09:53:42.658Z,1009.75
2023-06-13T09:54:42.642Z,1009.71
2023-06-13T09:55:42.633Z,1009.67
2023-06-13T09:56:42.649Z,1009.76
2023-06-13T09:58:42.627Z,1009.80
2023-06-13T09:59:42.616Z,1009.80
2023-06-13T10:00:42.603Z,1009.85
2023-06-13T10:01:43.897Z,1009.77
2023-06-13T10:02:42.634Z,1009.82
2023-06-13T10:03:42.547Z,1009.79
2023-06-13T10:04:42.554Z,1009.79
2023-06-13T10:05:42.567Z,1009.81
2023-06-13T10:06:42.507Z,1009.85
2023-06-13T10:07:42.519Z,1009.83
2023-06-13T10:08:42.525Z,1009.88
2023-06-13T10:09:42.496Z,1009.81
2023-06-13T10:10:42.487Z,1009.86
2023-06-13T10:11:42.465Z,1009.85
2023-06-13T10:12:42.453Z,1009.81
2023-06-13T10:13:42.445Z,1009.87
2023-06-13T10:14:42.488Z,1009.86
2023-06-13T10:15:42.421Z,1009.74
2023-06-13T10:16:51.061Z,1009.71
2023-06-13T10:17:42.456Z,1009.79
2023-06-13T10:18:42.384Z,1009.81
2023-06-13T10:19:42.389Z,1009.78
2023-06-13T10:20:42.426Z,1009.77
2023-06-13T10:21:51.484Z,1009.74
2023-06-13T10:22:42.347Z,1009.74
2023-06-13T10:23:42.356Z,1009.73
2023-06-13T10:24:42.336Z,1009.72
2023-06-13T10:25:42.326Z,1009.68
2023-06-13T10:26:42.343Z,1009.65
2023-06-13T10:27:42.315Z,1009.67
2023-06-13T10:28:42.292Z,1009.64
2023-06-13T10:29:42.264Z,1009.62
2023-06-13T10:30:42.246Z,1009.67
2023-06-13T10:31:43.369Z,1009.67
2023-06-13T10:32:42.292Z,1009.68
2023-06-13T10:33:42.233Z,1009.64
2023-06-13T10:34:42.220Z,1009.67
2023-06-13T10:35:42.261Z,1009.62
2023-06-13T10:36:42.377Z,1009.61
2023-06-13T10:37:42.205Z,1009.60
2023-06-13T10:38:42.199Z,1009.61
2023-06-13T10:39:42.169Z,1009.59
2023-06-13T10:40:42.150Z,1009.57
2023-06-13T10:41:42.144Z,1009.50
2023-06-13T10:42:42.157Z,1009.50
2023-06-13T10:43:42.125Z,1009.53
2023-06-13T10:44:42.134Z,1009.53
2023-06-13T10:45:42.151Z,1009.49
2023-06-13T10:46:42.087Z,1009.52
2023-06-13T10:47:42.134Z,1009.57
2023-06-13T10:48:42.073Z,1009.57
2023-06-13T10:49:43.245Z,1009.63
2023-06-13T10:50:42.100Z,1009.58
2023-06-13T10:51:42.049Z,1009.59
2023-06-13T10:52:42.034Z,1009.54
2023-06-13T10:53:42.023Z,1009.61
2023-06-13T10:54:42.020Z,1009.62
2023-06-13T10:55:42.012Z,1009.60
2023-06-13T10:56:42.005Z,1009.57
2023-06-13T10:57:41.976Z,1009.55
2023-06-13T10:58:41.970Z,1009.50
2023-06-13T10:59:41.988Z,1009.52
2023-06-13T11:00:42.045Z,1009.51
2023-06-13T11:01:42.040Z,1009.53
2023-06-13T11:02:41.976Z,1009.62
2023-06-13T11:03:41.962Z,1009.58
2023-06-13T11:04:41.906Z,1009.58
2023-06-13T11:05:43.615Z,1009.62
2023-06-13T11:06:41.884Z,1009.69
2023-06-13T11:07:41.865Z,1009.67
2023-06-13T11:08:41.894Z,1009.65
2023-06-13T11:09:41.850Z,1009.65
2023-06-13T11:10:41.874Z,1009.64
2023-06-13T11:11:41.824Z,1009.68
2023-06-13T11:12:41.824Z,1009.69
2023-06-13T11:13:41.804Z,1009.73
2023-06-13T11:14:41.815Z,1009.67
2023-06-13T11:15:41.775Z,1009.72
2023-06-13T11:16:41.824Z,1009.69
2023-06-13T11:17:41.808Z,1009.63
2023-06-13T11:18:41.761Z,1009.65
2023-06-13T11:19:41.739Z,1009.67
2023-06-13T11:20:41.790Z,1009.61
2023-06-13T11:21:41.716Z,1009.60
2023-06-13T11:22:41.716Z,1009.59
2023-06-13T11:23:41.696Z,1009.61
2023-06-13T11:24:41.834Z,1009.63
2023-06-13T11:25:41.675Z,1009.63
2023-06-13T11:26:41.687Z,1009.60
2023-06-13T11:27:41.660Z,1009.60
2023-06-13T11:28:41.630Z,1009.62
2023-06-13T11:29:41.623Z,1009.57
2023-06-13T11:30:41.612Z,1009.53
2023-06-13T11:31:41.672Z,1009.63
2023-06-13T11:32:41.657Z,1009.61
2023-06-13T11:33:41.598Z,1009.54
2023-06-13T11:34:41.580Z,1009.51
2023-06-13T11:35:41.562Z,1009.54
2023-06-13T11:36:41.550Z,1009.50
2023-06-13T11:37:47.744Z,1009.52
2023-06-13T11:38:41.534Z,1009.54
2023-06-13T11:39:42.473Z,1009.57
2023-06-13T11:40:41.515Z,1009.49
2023-06-13T11:41:41.529Z,1009.51
2023-06-13T11:42:41.518Z,1009.52
2023-06-13T11:43:41.522Z,1009.57
2023-06-13T11:44:41.475Z,1009.54
2023-06-13T11:45:41.454Z,1009.58
2023-06-13T11:46:41.483Z,1009.58
2023-06-13T11:47:41.523Z,1009.58
2023-06-13T11:49:41.546Z,1009.48
2023-06-13T11:50:41.400Z,1009.49
2023-06-13T11:51:41.383Z,1009.54
2023-06-13T11:52:41.462Z,1009.55
2023-06-13T11:53:41.361Z,1009.53
2023-06-13T11:54:41.367Z,1009.52
2023-06-13T11:55:41.404Z,1009.50
2023-06-13T11:56:41.361Z,1009.50
2023-06-13T11:57:41.308Z,1009.49
2023-06-13T11:58:41.319Z,1009.48
2023-06-13T11:59:41.309Z,1009.51
2023-06-13T12:00:41.300Z,1009.43
2023-06-13T12:01:41.393Z,1009.46
2023-06-13T12:02:41.647Z,1009.44
2023-06-13T12:03:41.322Z,1009.48
2023-06-13T12:04:43.018Z,1009.38
2023-06-13T12:05:41.247Z,1009.42
2023-06-13T12:06:41.232Z,1009.42
2023-06-13T12:07:41.242Z,1009.32
2023-06-13T12:08:41.203Z,1009.32